TimeEST,TemperatureF,Dew PointF,Humidity,Sea Level PressureIn,VisibilityMPH,Wind Direction,Wind SpeedMPH,Gust SpeedMPH,PrecipitationIn,Events,Conditions,WindDirDegrees,DateUTC
12:53 AM,75.9,72.0,87,30.01,10.0,NE,10.4,-,N/A,,Clear,40,2013-11-09 05:53:00
1:53 AM,75.9,72.0,87,30.00,10.0,NE,9.2,-,N/A,,Clear,40,2013-11-09 06:53:00
2:53 AM,75.9,72.0,87,29.99,10.0,NE,10.4,-,N/A,,Partly Cloudy,40,2013-11-09 07:53:00
3:53 AM,75.9,72.0,87,29.99,10.0,NE,9.2,17.3,N/A,,Clear,50,2013-11-09 08:53:00
4:53 AM,75.9,72.0,87,29.99,10.0,NE,6.9,17.3,N/A,,Clear,50,2013-11-09 09:53:00
5:53 AM,75.9,72.0,87,30.01,10.0,NE,10.4,-,N/A,,Partly Cloudy,40,2013-11-09 10:53:00
6:53 AM,75.9,72.0,87,30.03,10.0,NE,9.2,-,N/A,,Partly Cloudy,50,2013-11-09 11:53:00
7:53 AM,78.1,73.0,84,30.04,10.0,NE,10.4,-,N/A,,Partly Cloudy,50,2013-11-09 12:53:00
8:53 AM,80.1,73.0,79,30.05,10.0,ENE,11.5,19.6,N/A,,Clear,60,2013-11-09 13:53:00
9:53 AM,81.0,73.0,77,30.07,10.0,ENE,11.5,-,N/A,,Partly Cloudy,60,2013-11-09 14:53:00
10:53 AM,82.9,73.0,72,30.06,10.0,East,17.3,21.9,N/A,,Clear,90,2013-11-09 15:53:00
11:53 AM,84.0,73.0,69,30.05,10.0,East,16.1,24.2,N/A,,Partly Cloudy,80,2013-11-09 16:53:00
12:53 PM,84.0,73.9,72,30.03,10.0,East,15.0,-,N/A,,Mostly Cloudy,80,2013-11-09 17:53:00
1:53 PM,84.0,73.0,69,30.01,10.0,East,16.1,23.0,N/A,,Clear,90,2013-11-09 18:53:00
2:53 PM,84.0,73.0,69,30.01,10.0,East,11.5,21.9,N/A,,Partly Cloudy,80,2013-11-09 19:53:00
3:53 PM,82.9,73.0,72,30.01,10.0,East,15.0,20.7,N/A,,Partly Cloudy,90,2013-11-09 20:53:00
4:53 PM,82.0,73.0,74,30.02,10.0,ENE,12.7,19.6,N/A,,Partly Cloudy,70,2013-11-09 21:53:00
5:53 PM,80.1,73.0,79,30.04,10.0,ENE,10.4,-,N/A,,Clear,70,2013-11-09 22:53:00
6:53 PM,79.0,73.0,82,30.04,10.0,East,9.2,-,N/A,,Clear,80,2013-11-09 23:53:00
7:53 PM,79.0,73.9,84,30.05,10.0,East,10.4,-,N/A,,Clear,80,2013-11-10 00:53:00
8:53 PM,79.0,73.0,82,30.06,10.0,NE,6.9,-,N/A,,Clear,50,2013-11-10 01:53:00
9:53 PM,77.0,73.0,88,30.08,10.0,NE,10.4,21.9,N/A,,Mostly Cloudy,50,2013-11-10 02:53:00
10:41 PM,77.0,73.0,88,30.07,10.0,NE,12.7,20.7,N/A,,Scattered Clouds,50,2013-11-10 03:41:00
10:53 PM,77.0,73.0,88,30.07,10.0,ENE,10.4,-,N/A,,Partly Cloudy,70,2013-11-10 03:53:00
11:53 PM,77.0,73.0,88,30.07,10.0,NE,10.4,-,N/A,,Scattered Clouds,50,2013-11-10 04:53:00